Hallsville, Texas
Current Conditions -  °F | °C
As of 8:53 PM on Saturday 22 Nov 2014 (Local Time) from KGGG Reporting Station
Thunderstorm Thunderstorm  
Wind Chill: 62°   Ceiling: 600
Heat Index: 62°   Visibility: 5mi
Dew Point: 60°   Wind: 13mph
Humidity: 93%   Direction: 110°ESE
Pressure: 29.82"   Gusts: NA
Location:  32.5°N, 94.57°W
Report Text: KGGG 230253Z 11011KT 5SM TSRA BR BKN006 OVC012 17/16 A2982 RMK AO2 LTG DSNT SE AND S SLP095 P0038 60071 T01670156 58021
Loading
Personal Weather Stations






























Interactive Weather Map New forecast layout! Learn more

10-Day Weather Forecast

Advertisements
Track Severe Weather on mobile